Wetterdaten: Woche 20.02.23 - 26.02.23 (KW8)
Datum Zeit Temp. A. Feuchte A. Luftdruck Regen Wind Richtung Taupunkt Windchill
20.02.2023 00:00 4,2 C 91 % 1028 hPa 0,0 l/m 0,0 km/h (0 Bft) W-NW 2,9 C 4,2 C
20.02.2023 01:00 4,7 C 92 % 1028 hPa 0,0 l/m 0,0 km/h (0 Bft) W-NW 3,5 C 4,7 C
20.02.2023 02:00 5,1 C 92 % 1028 hPa 0,0 l/m 0,0 km/h (0 Bft) W-NW 3,9 C 5,1 C
20.02.2023 03:00 5,2 C 93 % 1027 hPa 0,0 l/m 0,4 km/h (0 Bft) W 4,1 C 5,2 C
20.02.2023 04:00 5,1 C 93 % 1027 hPa 0,0 l/m 1,2 km/h (1 Bft) W 4,1 C 5,0 C
20.02.2023 05:00 5,1 C 92 % 1027 hPa 0,0 l/m 0,0 km/h (0 Bft) W 3,9 C 5,1 C
20.02.2023 06:00 5,0 C 90 % 1027 hPa 0,0 l/m 3,1 km/h (1 Bft) W 3,5 C 4,8 C
20.02.2023 07:00 5,0 C 88 % 1026 hPa 0,0 l/m 0,0 km/h (0 Bft) S-SW 3,1 C 5,0 C
20.02.2023 08:00 5,4 C 87 % 1026 hPa 0,0 l/m 0,3 km/h (0 Bft) S 3,4 C 5,4 C
20.02.2023 09:00 6,9 C 84 % 1025 hPa 0,0 l/m 1,4 km/h (1 Bft) SW 4,5 C 6,8 C
20.02.2023 10:00 7,9 C 80 % 1025 hPa 0,0 l/m 1,3 km/h (1 Bft) W-NW 4,7 C 7,7 C
20.02.2023 11:00 9,0 C 78 % 1024 hPa 0,0 l/m 0,0 km/h (0 Bft) W 5,3 C 9,0 C
20.02.2023 12:00 10,8 C 72 % 1023 hPa 0,0 l/m 3,0 km/h (1 Bft) W 5,9 C 10,2 C
20.02.2023 13:00 12,4 C 66 % 1022 hPa 0,0 l/m 2,5 km/h (1 Bft) W-NW 6,2 C 12,4 C
20.02.2023 14:00 12,5 C 67 % 1022 hPa 0,0 l/m 2,8 km/h (1 Bft) W-NW 6,6 C 12,0 C
20.02.2023 15:00 12,8 C 68 % 1022 hPa 0,0 l/m 7,0 km/h (2 Bft) W 7,1 C 11,4 C
20.02.2023 16:00 12,9 C 67 % 1022 hPa 0,0 l/m 8,4 km/h (2 Bft) W 6,9 C 11,2 C
20.02.2023 17:00 11,9 C 69 % 1022 hPa 0,0 l/m 8,9 km/h (2 Bft) W-NW 6,3 C 10,0 C
20.02.2023 18:00 11,2 C 71 % 1022 hPa 0,0 l/m 3,8 km/h (1 Bft) W-NW 6,1 C 10,5 C
20.02.2023 19:00 10,8 C 72 % 1022 hPa 0,0 l/m 2,7 km/h (1 Bft) W-NW 6,0 C 10,5 C
20.02.2023 20:00 10,4 C 73 % 1022 hPa 0,0 l/m 3,4 km/h (1 Bft) W-NW 5,8 C 10,2 C
20.02.2023 21:00 9,8 C 76 % 1023 hPa 0,0 l/m 2,6 km/h (1 Bft) W-NW 5,6 C 9,5 C
20.02.2023 22:00 9,0 C 79 % 1022 hPa 0,0 l/m 1,6 km/h (1 Bft) W-NW 5,6 C 8,9 C
20.02.2023 23:00 8,7 C 79 % 1023 hPa 0,0 l/m 5,6 km/h (1 Bft) W-NW 5,3 C 7,7 C
21.02.2023 00:00 8,4 C 79 % 1022 hPa 0,0 l/m 3,9 km/h (1 Bft) W 5,0 C 7,5 C
21.02.2023 01:00 8,6 C 79 % 1022 hPa 0,0 l/m 3,8 km/h (1 Bft) W-NW 5,2 C 8,0 C
21.02.2023 02:00 8,9 C 79 % 1022 hPa 0,0 l/m 1,3 km/h (1 Bft) W-NW 5,4 C 8,7 C
21.02.2023 03:00 8,8 C 80 % 1022 hPa 0,0 l/m 1,4 km/h (1 Bft) W-NW 5,5 C 8,6 C
21.02.2023 04:00 8,7 C 80 % 1021 hPa 0,0 l/m 0,0 km/h (0 Bft) W-NW 5,5 C 8,7 C
21.02.2023 05:00 9,0 C 80 % 1021 hPa 0,0 l/m 3,7 km/h (1 Bft) W-NW 5,7 C 8,4 C
21.02.2023 06:00 8,9 C 80 % 1021 hPa 0,0 l/m 9,4 km/h (2 Bft) W-NW 5,6 C 6,5 C
21.02.2023 07:00 8,9 C 81 % 1022 hPa 0,0 l/m 7,8 km/h (2 Bft) W-NW 5,9 C 6,7 C
21.02.2023 08:00 9,2 C 81 % 1022 hPa 0,0 l/m 7,5 km/h (2 Bft) W-NW 6,1 C 7,3 C
21.02.2023 09:00 9,6 C 80 % 1022 hPa 0,0 l/m 6,8 km/h (2 Bft) W-NW 6,3 C 7,9 C
21.02.2023 10:00 10,1 C 79 % 1023 hPa 0,0 l/m 0,6 km/h (0 Bft) W-NW 6,6 C 10,1 C
21.02.2023 11:00 10,4 C 78 % 1023 hPa 0,0 l/m 2,9 km/h (1 Bft) W-NW 6,8 C 9,9 C
21.02.2023 12:00 11,0 C 78 % 1023 hPa 0,0 l/m 3,7 km/h (1 Bft) W-NW 7,2 C 10,3 C
21.02.2023 13:00 11,3 C 76 % 1022 hPa 0,0 l/m 5,8 km/h (2 Bft) W-NW 7,2 C 10,2 C
21.02.2023 14:00 11,4 C 76 % 1022 hPa 0,0 l/m 0,1 km/h (0 Bft) W-NW 7,2 C 11,4 C
21.02.2023 15:00 11,8 C 74 % 1022 hPa 0,0 l/m 2,2 km/h (1 Bft) W-NW 7,4 C 11,8 C
21.02.2023 16:00 11,3 C 75 % 1022 hPa 0,0 l/m 0,1 km/h (0 Bft) W-NW 7,0 C 11,3 C
21.02.2023 17:00 10,3 C 77 % 1022 hPa 0,0 l/m 0,0 km/h (0 Bft) W-NW 6,5 C 10,3 C
21.02.2023 18:00 9,3 C 79 % 1022 hPa 0,0 l/m 0,0 km/h (0 Bft) W-NW 5,7 C 9,3 C
21.02.2023 19:00 8,4 C 80 % 1022 hPa 0,0 l/m 0,0 km/h (0 Bft) W-NW 5,1 C 8,4 C
21.02.2023 20:00 8,3 C 80 % 1022 hPa 0,0 l/m 0,0 km/h (0 Bft) W-NW 5,1 C 8,3 C
21.02.2023 21:00 8,3 C 80 % 1022 hPa 0,0 l/m 0,0 km/h (0 Bft) W-NW 5,1 C 8,3 C
21.02.2023 22:00 8,3 C 81 % 1022 hPa 0,0 l/m 0,0 km/h (0 Bft) W-NW 5,2 C 8,3 C
21.02.2023 23:00 8,3 C 82 % 1022 hPa 0,0 l/m 0,0 km/h (0 Bft) W-NW 5,4 C 8,3 C
22.02.2023 00:00 8,1 C 82 % 1022 hPa 0,0 l/m 0,0 km/h (0 Bft) W-NW 5,2 C 8,1 C
22.02.2023 01:00 7,9 C 83 % 1022 hPa 0,0 l/m 0,0 km/h (0 Bft) W-NW 5,2 C 7,9 C
22.02.2023 02:00 7,8 C 83 % 1021 hPa 0,0 l/m 0,0 km/h (0 Bft) W-NW 5,1 C 7,8 C
22.02.2023 03:00 7,6 C 83 % 1021 hPa 0,0 l/m 0,0 km/h (0 Bft) W-NW 4,9 C 7,6 C
22.02.2023 04:00 7,6 C 84 % 1021 hPa 0,0 l/m 0,0 km/h (0 Bft) W-NW 5,1 C 7,6 C
22.02.2023 05:00 7,6 C 85 % 1020 hPa 0,0 l/m 0,0 km/h (0 Bft) W-NW 5,2 C 7,6 C
22.02.2023 06:00 7,6 C 85 % 1020 hPa 0,0 l/m 0,0 km/h (0 Bft) W-NW 5,2 C 7,6 C
22.02.2023 07:00 7,6 C 85 % 1020 hPa 0,0 l/m 0,0 km/h (0 Bft) W-NW 5,3 C 7,6 C
22.02.2023 08:00 8,1 C 86 % 1020 hPa 0,0 l/m 0,0 km/h (0 Bft) W-NW 5,9 C 8,1 C
22.02.2023 09:00 9,3 C 85 % 1020 hPa 0,0 l/m 0,0 km/h (0 Bft) W-NW 7,0 C 9,3 C
22.02.2023 10:00 11,7 C 82 % 1020 hPa 0,0 l/m 0,0 km/h (0 Bft) N-NO 8,7 C 11,7 C
22.02.2023 11:00 12,8 C 78 % 1020 hPa 0,0 l/m 0,0 km/h (0 Bft) N-NO 9,0 C 12,8 C
22.02.2023 12:00 14,1 C 73 % 1019 hPa 0,0 l/m 0,0 km/h (0 Bft) S 9,3 C 14,1 C
22.02.2023 13:00 15,2 C 71 % 1018 hPa 0,0 l/m 0,0 km/h (0 Bft) S 10,0 C 15,2 C
22.02.2023 14:00 15,7 C 69 % 1018 hPa 0,0 l/m 0,0 km/h (0 Bft) S 10,0 C 15,7 C
22.02.2023 15:00 15,4 C 69 % 1018 hPa 0,0 l/m 0,0 km/h (0 Bft) O-SO 9,8 C 15,4 C
22.02.2023 16:00 13,8 C 72 % 1018 hPa 0,0 l/m 2,5 km/h (1 Bft) O-SO 8,7 C 13,6 C
22.02.2023 17:00 11,7 C 75 % 1018 hPa 0,0 l/m 0,0 km/h (0 Bft) O-SO 7,4 C 11,7 C
22.02.2023 18:00 10,0 C 79 % 1018 hPa 0,0 l/m 0,0 km/h (0 Bft) O-SO 6,5 C 10,0 C
22.02.2023 19:00 9,3 C 81 % 1017 hPa 0,0 l/m 0,0 km/h (0 Bft) O-SO 6,2 C 9,3 C
22.02.2023 20:00 8,9 C 82 % 1017 hPa 0,0 l/m 0,0 km/h (0 Bft) O-SO 6,0 C 8,9 C
22.02.2023 21:00 8,8 C 83 % 1017 hPa 0,0 l/m 0,0 km/h (0 Bft) O-SO 6,1 C 8,8 C
22.02.2023 22:00 8,5 C 83 % 1017 hPa 0,0 l/m 0,0 km/h (0 Bft) O-SO 5,8 C 8,5 C
22.02.2023 23:00 8,9 C 84 % 1017 hPa 0,0 l/m 0,0 km/h (0 Bft) NO 6,3 C 8,9 C
23.02.2023 00:00 9,1 C 83 % 1017 hPa 0,0 l/m 0,0 km/h (0 Bft) S-SW 6,3 C 9,1 C
23.02.2023 01:00 9,2 C 83 % 1017 hPa 0,0 l/m 0,0 km/h (0 Bft) SW 6,5 C 9,2 C
23.02.2023 02:00 9,0 C 83 % 1017 hPa 0,0 l/m 0,0 km/h (0 Bft) SW 6,3 C 9,0 C
23.02.2023 03:00 8,5 C 83 % 1017 hPa 0,0 l/m 0,0 km/h (0 Bft) SW 5,8 C 8,5 C
23.02.2023 04:00 8,1 C 84 % 1017 hPa 0,0 l/m 0,0 km/h (0 Bft) SW 5,6 C 8,1 C
23.02.2023 05:00 7,5 C 85 % 1017 hPa 0,0 l/m 0,0 km/h (0 Bft) SW 5,1 C 7,5 C
23.02.2023 06:00 7,3 C 86 % 1017 hPa 0,0 l/m 0,0 km/h (0 Bft) SW 5,1 C 7,3 C
23.02.2023 07:00 7,3 C 87 % 1017 hPa 0,0 l/m 0,0 km/h (0 Bft) SW 5,2 C 7,3 C
23.02.2023 08:00 7,4 C 88 % 1017 hPa 0,0 l/m 0,0 km/h (0 Bft) SW 5,5 C 7,4 C
23.02.2023 09:00 8,6 C 88 % 1018 hPa 0,0 l/m 0,0 km/h (0 Bft) SW 6,7 C 8,6 C
23.02.2023 10:00 10,5 C 87 % 1018 hPa 0,0 l/m 0,0 km/h (0 Bft) SW 8,3 C 10,5 C
23.02.2023 11:00 12,0 C 83 % 1018 hPa 0,0 l/m 0,0 km/h (0 Bft) SW 9,2 C 12,0 C
23.02.2023 12:00 12,6 C 80 % 1018 hPa 0,0 l/m 0,0 km/h (0 Bft) SW 9,1 C 12,6 C
23.02.2023 13:00 12,8 C 78 % 1017 hPa 0,0 l/m 0,0 km/h (0 Bft) SW 9,0 C 12,8 C
23.02.2023 14:00 12,2 C 78 % 1017 hPa 0,0 l/m 0,0 km/h (0 Bft) SW 8,4 C 12,2 C
23.02.2023 15:00 10,9 C 80 % 1017 hPa 0,0 l/m 0,0 km/h (0 Bft) SW 7,5 C 10,9 C
23.02.2023 16:00 9,8 C 83 % 1017 hPa 0,0 l/m 0,0 km/h (0 Bft) SW 7,1 C 9,8 C
23.02.2023 17:00 9,4 C 85 % 1017 hPa 0,0 l/m 0,0 km/h (0 Bft) SW 7,1 C 9,4 C
23.02.2023 18:00 8,9 C 87 % 1017 hPa 0,0 l/m 0,0 km/h (0 Bft) SW 6,8 C 8,9 C
23.02.2023 19:00 8,6 C 87 % 1017 hPa 0,0 l/m 0,0 km/h (0 Bft) SW 6,5 C 8,6 C
23.02.2023 20:00 8,4 C 88 % 1017 hPa 0,0 l/m 0,0 km/h (0 Bft) SW 6,5 C 8,4 C
23.02.2023 21:00 8,3 C 89 % 1017 hPa 0,0 l/m 0,0 km/h (0 Bft) W-NW 6,6 C 8,3 C
23.02.2023 22:00 8,0 C 90 % 1017 hPa 0,0 l/m 0,0 km/h (0 Bft) W-NW 6,4 C 8,0 C
23.02.2023 23:00 7,5 C 90 % 1017 hPa 0,5 l/m 0,0 km/h (0 Bft) W-NW 6,0 C 7,5 C
24.02.2023 00:00 7,0 C 91 % 1016 hPa 0,0 l/m 0,0 km/h (0 Bft) W-NW 5,6 C 7,0 C
24.02.2023 01:00 6,6 C 92 % 1016 hPa 0,0 l/m 0,0 km/h (0 Bft) W-NW 5,4 C 6,6 C
24.02.2023 02:00 6,0 C 92 % 1015 hPa 0,0 l/m 0,0 km/h (0 Bft) W-NW 4,8 C 6,0 C
24.02.2023 03:00 5,5 C 92 % 1015 hPa 0,0 l/m 0,0 km/h (0 Bft) W-NW 4,4 C 5,5 C
24.02.2023 04:00 5,3 C 93 % 1014 hPa 0,0 l/m 0,0 km/h (0 Bft) W-NW 4,2 C 5,3 C
24.02.2023 05:00 5,2 C 93 % 1014 hPa 0,0 l/m 0,0 km/h (0 Bft) W-NW 4,1 C 5,2 C
24.02.2023 06:00 5,1 C 93 % 1013 hPa 0,0 l/m 0,0 km/h (0 Bft) W-NW 4,1 C 5,1 C
24.02.2023 07:00 4,4 C 92 % 1013 hPa 1,0 l/m 0,4 km/h (0 Bft) NW 3,2 C 4,4 C
24.02.2023 08:00 3,7 C 92 % 1013 hPa 0,0 l/m 0,0 km/h (0 Bft) N-NW 2,5 C 3,7 C
24.02.2023 09:00 3,4 C 93 % 1012 hPa 0,5 l/m 0,0 km/h (0 Bft) W-NW 2,3 C 3,4 C
24.02.2023 10:00 4,1 C 93 % 1011 hPa 0,0 l/m 0,2 km/h (0 Bft) W 3,1 C 4,1 C
24.02.2023 11:00 5,2 C 93 % 1010 hPa 0,0 l/m 0,3 km/h (0 Bft) SW 4,1 C 5,2 C
24.02.2023 12:00 6,6 C 89 % 1009 hPa 0,0 l/m 1,9 km/h (1 Bft) W-NW 4,9 C 6,2 C
24.02.2023 13:00 6,6 C 82 % 1008 hPa 0,0 l/m 0,5 km/h (0 Bft) W-NW 3,8 C 6,6 C
24.02.2023 14:00 6,3 C 80 % 1007 hPa 0,0 l/m 0,5 km/h (0 Bft) W-NW 3,2 C 6,3 C
24.02.2023 15:00 5,3 C 80 % 1007 hPa 0,0 l/m 3,6 km/h (1 Bft) W-NW 2,2 C 4,3 C
24.02.2023 16:00 2,9 C 86 % 1006 hPa 0,5 l/m 0,5 km/h (0 Bft) W 0,7 C 2,9 C
24.02.2023 17:00 2,3 C 89 % 1006 hPa 1,6 l/m 0,0 km/h (0 Bft) W 0,6 C 2,3 C
24.02.2023 18:00 2,1 C 90 % 1005 hPa 0,5 l/m 2,8 km/h (1 Bft) W 0,7 C 2,1 C
24.02.2023 19:00 2,1 C 91 % 1005 hPa 0,0 l/m 2,0 km/h (1 Bft) W 0,8 C 2,1 C
24.02.2023 20:00 2,2 C 91 % 1004 hPa 0,0 l/m 0,0 km/h (0 Bft) W 0,9 C 2,2 C
24.02.2023 21:00 2,3 C 90 % 1004 hPa 0,0 l/m 1,1 km/h (1 Bft) W-NW 0,9 C 2,3 C
24.02.2023 22:00 2,3 C 90 % 1004 hPa 0,0 l/m 1,0 km/h (0 Bft) W-NW 0,8 C 2,3 C
24.02.2023 23:00 2,6 C 90 % 1004 hPa 0,0 l/m 3,1 km/h (1 Bft) W-NW 1,1 C 2,6 C
25.02.2023 00:00 2,8 C 89 % 1004 hPa 0,0 l/m 0,0 km/h (0 Bft) W-NW 1,1 C 2,8 C
25.02.2023 01:00 2,4 C 89 % 1004 hPa 0,0 l/m 5,8 km/h (1 Bft) W-NW 0,7 C 1,0 C
25.02.2023 02:00 2,2 C 88 % 1004 hPa 0,0 l/m 5,3 km/h (1 Bft) W-SW 0,4 C 0,6 C
25.02.2023 03:00 2,2 C 88 % 1004 hPa 0,0 l/m 7,0 km/h (2 Bft) W-NW 0,5 C 0,3 C
25.02.2023 04:00 2,4 C 88 % 1004 hPa 0,0 l/m 4,9 km/h (1 Bft) W-NW 0,5 C 1,2 C
25.02.2023 05:00 2,4 C 87 % 1004 hPa 0,0 l/m 4,5 km/h (1 Bft) W-NW 0,4 C 1,6 C
25.02.2023 06:00 2,1 C 88 % 1005 hPa 0,0 l/m 2,7 km/h (1 Bft) W 0,2 C 1,8 C
25.02.2023 07:00 1,7 C 88 % 1005 hPa 0,0 l/m 0,9 km/h (0 Bft) W-NW -0,1 C 1,7 C
25.02.2023 08:00 1,9 C 88 % 1006 hPa 0,0 l/m 4,0 km/h (1 Bft) W-NW 0,1 C 1,4 C
25.02.2023 09:00 2,0 C 88 % 1006 hPa 0,0 l/m 2,0 km/h (1 Bft) W-NW 0,1 C 1,8 C
25.02.2023 10:00 1,7 C 87 % 1007 hPa 0,0 l/m 4,4 km/h (1 Bft) NW -0,2 C 0,0 C
25.02.2023 11:00 0,5 C 89 % 1008 hPa 0,0 l/m 0,0 km/h (0 Bft) W-NW -1,1 C 0,5 C
25.02.2023 12:00 1,2 C 89 % 1008 hPa 0,5 l/m 1,4 km/h (1 Bft) W-NW -0,3 C 1,2 C
25.02.2023 13:00 1,1 C 88 % 1009 hPa 0,0 l/m 1,8 km/h (1 Bft) NW -0,6 C 0,4 C
25.02.2023 14:00 0,8 C 89 % 1009 hPa 1,0 l/m 6,5 km/h (2 Bft) N -0,9 C -1,3 C
25.02.2023 15:00 0,3 C 90 % 1010 hPa 0,5 l/m 0,0 km/h (0 Bft) N-NW -1,2 C 0,3 C
25.02.2023 16:00 0,2 C 89 % 1010 hPa 0,0 l/m 3,1 km/h (1 Bft) N-NW -1,4 C 0,0 C
25.02.2023 17:00 -0,5 C 88 % 1012 hPa 0,0 l/m 0,0 km/h (0 Bft) W-NW -2,2 C -0,5 C
25.02.2023 18:00 -0,4 C 89 % 1013 hPa 0,0 l/m 5,5 km/h (1 Bft) N -2,1 C -2,2 C
25.02.2023 19:00 -0,6 C 87 % 1013 hPa 0,0 l/m 0,0 km/h (0 Bft) W-NW -2,5 C -0,6 C
25.02.2023 20:00 -0,9 C 86 % 1014 hPa 0,0 l/m 0,0 km/h (0 Bft) NW -2,9 C -0,9 C
25.02.2023 21:00 -1,1 C 85 % 1015 hPa 0,0 l/m 0,4 km/h (0 Bft) N -3,4 C -1,1 C
25.02.2023 22:00 -1,5 C 84 % 1015 hPa 0,0 l/m 0,0 km/h (0 Bft) N -3,9 C -1,5 C
25.02.2023 23:00 -1,7 C 85 % 1016 hPa 0,0 l/m 0,3 km/h (0 Bft) N -4,0 C -1,7 C
26.02.2023 00:00 -1,7 C 84 % 1016 hPa 0,0 l/m 0,8 km/h (0 Bft) N -4,0 C -1,7 C
26.02.2023 01:00 -1,8 C 85 % 1016 hPa 0,0 l/m 0,0 km/h (0 Bft) N -3,9 C -1,8 C
26.02.2023 02:00 -2,0 C 87 % 1017 hPa 0,0 l/m 2,1 km/h (1 Bft) N-NO -3,9 C -2,9 C
26.02.2023 03:00 -2,2 C 88 % 1017 hPa 0,0 l/m 0,0 km/h (0 Bft) N -3,8 C -2,2 C
26.02.2023 04:00 -2,4 C 89 % 1018 hPa 0,0 l/m 0,0 km/h (0 Bft) N-NO -3,9 C -2,4 C
26.02.2023 05:00 -2,4 C 90 % 1018 hPa 0,0 l/m 0,0 km/h (0 Bft) N -3,8 C -2,4 C
26.02.2023 06:00 -2,5 C 90 % 1019 hPa 0,0 l/m 4,0 km/h (1 Bft) N -3,9 C -3,4 C
26.02.2023 07:00 -2,6 C 90 % 1021 hPa 0,0 l/m 3,8 km/h (1 Bft) N -4,0 C -4,2 C
26.02.2023 08:00 -2,3 C 91 % 1022 hPa 0,0 l/m 6,2 km/h (2 Bft) N-NO -3,6 C -3,5 C
26.02.2023 09:00 -2,0 C 91 % 1022 hPa 0,0 l/m 5,8 km/h (2 Bft) N-NO -3,2 C -3,4 C
26.02.2023 10:00 -1,4 C 90 % 1024 hPa 0,0 l/m 6,5 km/h (2 Bft) N -2,9 C -3,6 C
26.02.2023 11:00 -1,0 C 89 % 1024 hPa 0,0 l/m 0,8 km/h (0 Bft) N -2,6 C -1,0 C
26.02.2023 12:00 -0,2 C 87 % 1025 hPa 0,0 l/m 2,4 km/h (1 Bft) N -2,1 C -0,4 C
26.02.2023 13:00 0,4 C 80 % 1025 hPa 0,5 l/m 12,1 km/h (2 Bft) N -2,7 C -3,9 C
26.02.2023 14:00 0,3 C 78 % 1025 hPa 0,0 l/m 7,1 km/h (2 Bft) N -3,1 C -2,3 C
26.02.2023 15:00 0,5 C 77 % 1025 hPa 0,0 l/m 1,1 km/h (1 Bft) N -3,2 C 0,5 C
26.02.2023 16:00 0,1 C 79 % 1026 hPa 0,0 l/m 5,4 km/h (1 Bft) N -3,2 C -1,7 C
26.02.2023 17:00 -0,7 C 80 % 1026 hPa 0,0 l/m 1,8 km/h (1 Bft) N -3,7 C -1,1 C
26.02.2023 18:00 -1,3 C 81 % 1027 hPa 0,0 l/m 0,0 km/h (0 Bft) N-NO -4,1 C -1,3 C
26.02.2023 19:00 -1,7 C 82 % 1028 hPa 0,0 l/m 1,1 km/h (1 Bft) N -4,4 C -1,7 C
26.02.2023 20:00 -2,1 C 82 % 1028 hPa 0,0 l/m 1,4 km/h (1 Bft) N-NO -4,7 C -2,4 C
26.02.2023 21:00 -2,8 C 82 % 1028 hPa 0,0 l/m 0,0 km/h (0 Bft) N-NO -5,4 C -2,8 C
26.02.2023 22:00 -3,0 C 82 % 1029 hPa 0,0 l/m 0,0 km/h (0 Bft) N -5,6 C -3,0 C
26.02.2023 23:00 -3,6 C 82 % 1029 hPa 0,0 l/m 0,0 km/h (0 Bft) N -6,3 C -3,6 C
Min-Datum _ 26.02.23 20.02.23 25.02.23 - 26.02.23 - 26.02.23 26.02.23
_ Min-Zeit 23:53 13:23 05:03 - 23:03 - 23:53 16:13
Minimum _ -4,4 C 65 % 1004 hPa - 0,0 km/h (0 Bft) - -7,0 C -9,3 C
Max-Datum _ 22.02.23 24.02.23 26.02.23 24.02.23 26.02.23 - 22.02.23 22.02.23
_ Max-Zeit 14:33 11:03 23:33 17:03 16:13 - 14:33 14:33
Maximum _ 15,9 C 93 % 1030 hPa 1,6 l/m 20,9 km/h
N (4 Bft)
- 10,2 C 15,9 C
Durchschnitt _ 5,9 C 84 % 1018 hPa #7,3 l/m 1,6 km/h (1 Bft) W-NW 3,2 C 5,5 C